Flight Track Log - Related Links

Times and Time Zones

All times are in EDT time to prevent confusion due to time zone crossing. See the UCA3598 flight status page for this flight to view local times or setup timezone preferences in your user account.


Time Position Orientation Groundspeed Altitude Reporting Facility
EDT Latitude Longitude Course Direction KTS MPH feet Rate Location/Type
Wed 10:22:10 PM 39.0000 -77.4667 North 167 192 3,100  Level Potomac TRACON
Wed 10:23:16 PM 39.0500 -77.5000 333° Northwest 172 198 5,100 1,600 Climbing Potomac TRACON
Wed 10:24:10 PM 39.0833 -77.5333 322° Northwest 189 217 6,300 1,400 Climbing Potomac TRACON
Wed 10:25:16 PM 39.1333 -77.5500 346° North 189 217 7,900 1,400 Climbing Potomac TRACON
Wed 10:26:00 PM 39.3844 -77.4500 North  Level FlightAware Approximate
Wed 10:26:10 PM 39.1833 -77.5667 346° North 195 224 9,100  Level Potomac TRACON
Wed 10:27:00 PM 39.0166 -77.4500 North  Level FlightAware Approximate
Wed 10:27:10 PM 39.2333 -77.5667 360° North 201 231 10,500  Level Potomac TRACON
Wed 10:28:16 PM 39.3000 -77.5500 11° North 202 232 12,000 1,200 Climbing Potomac TRACON
Wed 10:29:10 PM 39.3500 -77.5333 14° North 207 238 12,900 638 Climbing Potomac TRACON
Wed 10:29:50 PM 39.3878 -77.5250 10° North 233 268 13,000 60 Climbing Washington Center
Wed 10:30:50 PM 39.4608 -77.5053 12° North 273 314 13,000 50 Level Washington Center
Wed 10:31:50 PM 39.5406 -77.4833 12° North 279 321 13,100 754 Climbing Washington Center
Wed 10:33:37 PM 39.6700 -77.4494 11° North 265 305 15,100 934 Climbing New York Center
Wed 10:34:37 PM 39.7325 -77.4500 360° North 256 295 15,700 500 Climbing New York Center
Wed 10:35:37 PM 39.8111 -77.4250 14° North 256 295 16,100 450 Climbing New York Center
Wed 10:36:37 PM 39.8758 -77.3878 24° Northeast 277 319 16,600 750 Climbing New York Center
Wed 10:37:37 PM 39.9508 -77.3489 22° Northeast 267 307 17,600 1,200 Climbing New York Center
Wed 10:38:37 PM 40.0133 -77.3167 22° Northeast 262 302 19,000 550 Climbing New York Center
Wed 10:39:37 PM 40.0883 -77.2775 22° Northeast 257 296 18,700  Descending New York Center
Wed 10:40:37 PM 40.1508 -77.2428 23° Northeast 264 304 19,000 150 Climbing New York Center
Wed 10:41:37 PM 40.2344 -77.1989 22° Northeast 280 322 19,000  Level New York Center
Wed 10:42:37 PM 40.3031 -77.1644 21° North 286 329 19,000  Level New York Center
Wed 10:43:37 PM 40.3889 -77.1178 22° Northeast 291 335 19,000  Level New York Center
Wed 10:44:37 PM 40.4597 -77.0806 22° Northeast 301 346 19,000  Level New York Center
Wed 10:45:37 PM 40.5456 -77.0339 22° Northeast 301 346 19,000  Level New York Center
Wed 10:46:37 PM 40.6142 -76.9964 23° Northeast 301 346 19,000  Level New York Center
Wed 10:47:38 PM 40.7000 -76.9494 23° Northeast 301 346 19,000  Level New York Center
Wed 10:48:37 PM 40.7708 -76.9119 22° Northeast 301 346 19,000  Level New York Center
Wed 10:49:37 PM 40.8567 -76.8647 23° Northeast 301 346 19,000 -50 Level New York Center
Wed 10:50:37 PM 40.9272 -76.8269 22° Northeast 301 346 18,900 -400 Descending New York Center
Wed 10:51:37 PM 41.0067 -76.7819 23° Northeast 301 346 18,200 -400 Descending New York Center
Wed 10:52:37 PM 41.0903 -76.7369 22° Northeast 301 346 18,100 -400 Descending New York Center
Wed 10:53:37 PM 41.1717 -76.6917 23° Northeast 306 352 17,400 -700 Descending New York Center
Wed 10:54:37 PM 41.2553 -76.6439 23° Northeast 312 359 16,700 -750 Descending New York Center
Wed 10:55:37 PM 41.3453 -76.5936 23° Northeast 312 359 15,900 -750 Descending New York Center
Wed 10:56:37 PM 41.4203 -76.5531 22° Northeast 307 353 15,200 -400 Descending New York Center
Wed 10:57:37 PM 41.4953 -76.5097 23° Northeast 301 346 15,100 -50 Descending New York Center
Wed 10:58:37 PM 41.5594 -76.4736 23° Northeast 283 326 15,100 -700 Level New York Center
Wed 10:59:37 PM 41.6342 -76.4328 22° Northeast 277 319 13,700 -1,500 Descending New York Center
Wed 11:00:37 PM 41.7156 -76.3869 23° Northeast 277 319 12,100 -1,600 Descending New York Center
Wed 11:01:37 PM 41.7844 -76.3372 28° Northeast 277 319 10,500 -1,500 Descending New York Center
Wed 11:02:37 PM 41.8431 -76.2892 31° Northeast 277 319 9,100 -1,450 Descending New York Center
Wed 11:03:37 PM 41.9058 -76.2358 32° Northeast 272 313 7,600 -1,600 Descending New York Center
Wed 11:04:37 PM 41.9686 -76.1825 32° Northeast 252 290 5,900 -1,600 Descending New York Center
Wed 11:05:37 PM 42.0250 -76.1367 31° Northeast 242 278 4,400 -1,000 Descending New York Center
Wed 11:06:37 PM 42.0736 -76.0708 45° Northeast 237 273 3,900 -250 Descending New York Center
Wed 11:07:37 PM 42.1036 -76.0089 57° Northeast 220 253 3,900 -347 Level New York Center
Wed 11:08:38 PM 42.1267 -75.9578 59° Northeast 189 217 3,200 -600 Descending New York Center
Wed 11:09:37 PM 42.1542 -75.9431 22° Northeast 117 135 2,700 -605 Descending New York Center
Wed 11:10:37 PM 42.1850 -75.9567 342° North 101 116 2,000 -350 Descending New York Center
Wed 11:11:37 PM 42.2083 -75.9417 25° Northeast 101 116 2,000 6,500 Level New York Center
Wed 11:12:37 PM 42.2336 -75.9353 11° North 101 116 15,000 13,000 Climbing New York Center
Wed 11:14:00 PM 42.2000 -75.9667 North  Level FlightAware Approximate
Wed 11:21:00 PM 42.2084 -75.9796 North  Level Estimated

Login

Don't have an account? Register now (free) for customized features, flight alerts, and more!